Manhattan II — WDI3286 — position and weather

sailwx.info

Track history (hours):
 
Tides and Currents Weather Stations Pressure Air Temp Water Temp Dewpoint Dewpoint Depression Visibility Wind Speed Wind Dir Waves Ship Positions

Manhattan II

Owner: Classic Harbor Lines, LLC, Albany, NY. More information available from US FCC via Universal Licensing System and Coast Guard Vessel Documentation Center.

Last reported at 2017-Oct-22 23:31 UTC. Time now 2017-Oct-23 06:04 UTC.
Position N 40°45' W 074°01'.

Length 30 m.

Type: Passenger vessel. MMSI: 367686740.

Date/timePositionNaut miles runAvg speedWind from/ knotsBaromVisibWave heightAir tempDewpointWater temp
2017-Oct-22 23:31N 40°45' W 074°01'0 0.0
2017-Oct-22 23:29N 40°45' W 074°01'3 5.3
2017-Oct-22 23:00N 40°42' W 073°60'3 5.6
2017-Oct-22 22:30N 40°41' W 074°03'510.2
2017-Oct-22 22:00N 40°46' W 074°01'1 2.0
2017-Oct-22 21:23N 40°45' W 074°01'0 0.0
2017-Oct-22 20:59N 40°45' W 074°01'0 0.0
2017-Oct-22 20:29N 40°45' W 074°01'611.4
2017-Oct-22 19:59N 40°50' W 073°57'5 4.7
2017-Oct-22 18:54N 40°45' W 073°58'4 9.0
2017-Oct-22 18:30N 40°42' W 074°00'3 5.1
2017-Oct-22 18:00N 40°44' W 074°01'1 0.9
2017-Oct-22 17:27N 40°45' W 074°01'0 0.0
2017-Oct-22 16:54N 40°45' W 074°01'2 6.2
2017-Oct-22 16:30N 40°47' W 073°60'5 2.6
2017-Oct-22 14:38N 40°52' W 073°57'215.7
2017-Oct-22 14:30N 40°50' W 073°58'5 8.8
2017-Oct-22 13:54N 40°45' W 074°01'0 0.0
2017-Oct-22 01:33N 40°45' W 074°01'0 0.0
2017-Oct-22 01:29N 40°45' W 074°01'3 6.0
2017-Oct-22 01:00N 40°42' W 074°00'2 3.4
2017-Oct-22 00:30N 40°41' W 074°02'4 6.9
2017-Oct-21 23:57N 40°45' W 074°01'0 0.0
2017-Oct-21 23:29N 40°45' W 074°01'3 5.4
2017-Oct-21 23:00N 40°42' W 073°60'0 0.1
2017-Oct-21 22:30N 40°42' W 073°60'2 3.5
2017-Oct-21 22:00N 40°44' W 074°01'1 2.8
2017-Oct-21 21:30N 40°45' W 074°01'0 0.0
2017-Oct-21 21:00N 40°45' W 074°01'0 0.4
2017-Oct-21 20:24N 40°45' W 074°01'410.2
2017-Oct-21 19:59N 40°49' W 073°58'3 3.0
2017-Oct-21 18:51N 40°45' W 073°58'410.1
2017-Oct-21 18:30N 40°42' W 073°60'2 4.0
2017-Oct-21 17:56N 40°44' W 074°01'1 0.9
2017-Oct-21 17:19N 40°45' W 074°01'0 0.0
2017-Oct-21 16:55N 40°45' W 074°01'3 7.0
2017-Oct-21 16:29N 40°48' W 073°59'4 2.4
2017-Oct-21 14:45N 40°52' W 073°57'7 9.4
2017-Oct-21 13:59N 40°45' W 074°01'0 0.0
2017-Oct-21 13:23N 40°45' W 074°01'0 0.0
2017-Oct-20 23:17N 40°45' W 074°01'0 0.6
2017-Oct-20 22:59N 40°45' W 074°01'3 5.6
2017-Oct-20 22:30N 40°42' W 073°60'2 3.0
2017-Oct-20 22:00N 40°42' W 074°02'3 2.2
2017-Oct-20 20:47N 40°45' W 074°01'0 0.0
2017-Oct-20 20:31N 40°45' W 074°01'2 1.2
2017-Oct-20 18:44N 40°44' W 073°58'2 9.5
2017-Oct-20 18:30N 40°42' W 073°60'2 3.7
2017-Oct-20 18:00N 40°44' W 074°01'1 1.8
2017-Oct-20 17:25N 40°45' W 074°01'0 0.0
2017-Oct-20 16:55N 40°45' W 074°01'1 2.4
2017-Oct-20 16:29N 40°46' W 074°00'2 1.5
2017-Oct-20 15:02N 40°45' W 073°57'010.9
2017-Oct-20 15:00N 40°45' W 073°58'2 2.1
2017-Oct-20 14:00N 40°45' W 074°01'0 0.0
2017-Oct-20 13:30N 40°45' W 074°01'0 0.0
2017-Oct-19 23:18N 40°45' W 074°01'1 1.6
2017-Oct-19 22:59N 40°45' W 074°01'3 5.8
2017-Oct-19 22:30N 40°43' W 073°59'3 5.6
2017-Oct-19 22:00N 40°41' W 074°02'4 7.2
2017-Oct-19 21:29N 40°45' W 074°01'0 0.0
2017-Oct-19 20:56N 40°45' W 074°01'0 0.0
2017-Oct-19 20:30N 40°45' W 074°01'610.6
2017-Oct-19 19:58N 40°50' W 073°57'5 4.7
2017-Oct-19 18:56N 40°45' W 073°57'4 9.4
2017-Oct-19 18:30N 40°42' W 074°00'2 4.1
2017-Oct-19 18:00N 40°44' W 074°01'1 1.2
2017-Oct-19 17:03N 40°45' W 074°01'0 0.0
2017-Oct-19 16:59N 40°45' W 074°01'3 5.8
2017-Oct-19 16:30N 40°42' W 073°60'2 4.4
2017-Oct-19 16:00N 40°44' W 074°01'1 0.5
2017-Oct-19 14:19N 40°45' W 074°01'0 0.9
2017-Oct-19 13:59N 40°45' W 074°01'2 5.0
2017-Oct-19 13:30N 40°43' W 074°02'0 0.1
2017-Oct-19 13:00N 40°43' W 074°03'3 4.6
2017-Oct-19 12:26N 40°45' W 074°01'0 0.1
2017-Oct-19 12:00N 40°45' W 074°01'0 0.0
2017-Oct-18 23:15N 40°45' W 074°01'1 2.3
2017-Oct-18 22:57N 40°45' W 074°01'3 5.9
2017-Oct-18 22:30N 40°43' W 073°59'3 5.7
2017-Oct-18 22:00N 40°42' W 074°02'3 7.0
2017-Oct-18 21:30N 40°45' W 074°01'0 0.0
2017-Oct-18 21:00N 40°45' W 074°01'0 0.0
2017-Oct-18 20:30N 40°45' W 074°01'5 9.1
2017-Oct-18 20:00N 40°49' W 073°58'4 3.7
2017-Oct-18 18:49N 40°45' W 073°58'3 9.7
2017-Oct-18 18:29N 40°42' W 074°00'2 4.3
2017-Oct-18 18:00N 40°44' W 074°01'1 1.8
2017-Oct-18 17:28N 40°45' W 074°01'0 0.0
2017-Oct-17 23:47N 40°45' W 074°01'0 0.9
2017-Oct-17 23:29N 40°45' W 074°01'3 6.6
2017-Oct-17 23:00N 40°42' W 074°02'2 3.3
2017-Oct-17 22:30N 40°43' W 074°01'2 3.2
2017-Oct-17 22:00N 40°45' W 074°01'0 0.0
2017-Oct-17 21:30N 40°45' W 074°01'0 0.0
2017-Oct-17 21:00N 40°45' W 074°01'0 0.0
2017-Oct-17 20:30N 40°45' W 074°01'5 9.5
2017-Oct-17 19:58N 40°49' W 073°58'4 3.6
2017-Oct-17 18:49N 40°45' W 073°57'410.6
2017-Oct-17 18:29N 40°42' W 073°60'1 3.0
2017-Oct-17 18:00N 40°43' W 074°01'2 3.5
2017-Oct-17 17:30N 40°45' W 074°01'0 0.0
2017-Oct-17 17:00N 40°45' W 074°01'2 3.4
2017-Oct-17 16:30N 40°43' W 074°01'1 2.9
2017-Oct-17 15:59N 40°42' W 073°60'3 5.1
2017-Oct-17 15:28N 40°45' W 074°01'0 0.0
2017-Oct-17 14:58N 40°45' W 074°01'0 0.0
2017-Oct-16 23:43N 40°45' W 074°01'0 1.7
2017-Oct-16 23:30N 40°45' W 074°01'3 5.0
2017-Oct-16 22:59N 40°42' W 073°60'2 3.1
2017-Oct-16 22:30N 40°43' W 074°01'2 3.1
2017-Oct-16 21:55N 40°45' W 074°01'0 0.0
2017-Oct-16 21:28N 40°45' W 074°01'0 0.0
2017-Oct-16 20:58N 40°45' W 074°01'0 0.0
2017-Oct-16 20:27N 40°45' W 074°01'5 9.7
2017-Oct-16 19:58N 40°49' W 073°58'4 3.4
2017-Oct-16 18:45N 40°45' W 073°58'311.8
2017-Oct-16 18:30N 40°42' W 073°60'2 3.9
2017-Oct-16 18:00N 40°44' W 074°01'1 1.9
2017-Oct-16 17:29N 40°45' W 074°01'0 0.0
2017-Oct-16 16:59N 40°45' W 074°01'0 0.8
2017-Oct-16 16:29N 40°45' W 074°01'613.5
2017-Oct-16 16:00N 40°51' W 073°57'6 6.3
2017-Oct-16 15:01N 40°45' W 073°58'011.2
2017-Oct-16 15:00N 40°45' W 073°58'5 9.6
2017-Oct-16 14:31N 40°41' W 074°02'4 0.3
2017-Oct-15 23:19N 40°45' W 074°01'2 5.4
2017-Oct-15 23:00N 40°43' W 074°01'2 3.2
2017-Oct-15 22:30N 40°42' W 074°00'1 2.9
2017-Oct-15 22:00N 40°43' W 074°02'4 7.9
2017-Oct-15 21:30N 40°47' W 073°60'2 3.1
2017-Oct-15 20:58N 40°45' W 074°01'1 2.2
2017-Oct-15 20:30N 40°44' W 074°01'6 2.7
2017-Oct-15 18:15N 40°39' W 074°05'312.3
2017-Oct-15 18:00N 40°41' W 074°03'4 8.6
2017-Oct-15 17:30N 40°45' W 074°01'0 0.0
2017-Oct-15 17:00N 40°45' W 074°01'2 3.9
2017-Oct-15 16:29N 40°47' W 073°60'6 3.3
2017-Oct-15 14:43N 40°52' W 073°56'810.8
2017-Oct-15 14:00N 40°45' W 074°01'0 0.0
2017-Oct-15 13:27N 40°45' W 074°01'0 0.0
2017-Oct-14 21:47N 40°45' W 074°01'2 6.1
2017-Oct-14 21:30N 40°47' W 074°00'611.9
2017-Oct-14 20:59N 40°52' W 073°56'0 0.4
2017-Oct-14 20:30N 40°52' W 073°56'0 0.3
2017-Oct-14 19:58N 40°52' W 073°56'1 1.3
2017-Oct-14 19:30N 40°52' W 073°56'0 0.1
2017-Oct-14 18:59N 40°52' W 073°56'0 0.7
2017-Oct-14 18:25N 40°52' W 073°56'1 3.3
2017-Oct-14 18:00N 40°51' W 073°57'612.5
2017-Oct-14 17:30N 40°45' W 074°01'0 0.8
2017-Oct-14 16:58N 40°45' W 074°01'1 1.3
2017-Oct-14 16:30N 40°46' W 074°01'7 3.8
2017-Oct-14 14:45N 40°52' W 073°57'312.1
2017-Oct-14 14:30N 40°49' W 073°58'4 7.1
2017-Oct-14 13:55N 40°45' W 074°01'0 0.0
2017-Oct-14 13:28N 40°45' W 074°01'0 0.0
2017-Oct-14 00:50N 40°45' W 074°01'0 0.0
2017-Oct-14 00:30N 40°45' W 074°01'0 0.4
2017-Oct-14 00:00N 40°45' W 074°01'4 7.7
2017-Oct-13 23:30N 40°41' W 074°03'1 2.7
2017-Oct-13 22:59N 40°42' W 074°01'3 6.2
2017-Oct-13 22:28N 40°45' W 074°01'0 0.0
2017-Oct-13 21:58N 40°45' W 074°01'0 0.0
2017-Oct-13 21:25N 40°45' W 074°01'0 0.0
2017-Oct-13 20:52N 40°45' W 074°01'0 0.1
2017-Oct-13 20:30N 40°45' W 074°01'611.3
2017-Oct-13 20:00N 40°50' W 073°57'5 4.3
2017-Oct-13 18:47N 40°45' W 073°58'311.0
2017-Oct-13 18:30N 40°42' W 074°00'3 5.1
2017-Oct-13 18:00N 40°45' W 074°01'0 0.5
2017-Oct-13 17:20N 40°45' W 074°01'0 0.0
2017-Oct-13 16:59N 40°45' W 074°01'1 1.8
2017-Oct-13 16:30N 40°46' W 074°01'611.7
2017-Oct-13 16:00N 40°51' W 073°57'6 5.8
2017-Oct-13 15:00N 40°45' W 073°58'5 9.8
2017-Oct-13 14:30N 40°41' W 074°02'4 7.5
2017-Oct-13 13:59N 40°45' W 074°01'  
Track history (hours):
 
Tides and Currents Weather Stations Pressure Air Temp Water Temp Dewpoint Dewpoint Depression Visibility Wind Speed Wind Dir Waves Ship Positions

Manhattan II

Owner: Classic Harbor Lines, LLC, Albany, NY. More information available from US FCC via Universal Licensing System and Coast Guard Vessel Documentation Center.

Last reported at 2017-Oct-22 23:31 UTC. Time now 2017-Oct-23 06:04 UTC.
Position N 40°45' W 074°01'.

Length 30 m.

Type: Passenger vessel. MMSI: 367686740.

Date/timePositionNaut miles runAvg speedWind from/ knotsBaromVisibWave heightAir tempDewpointWater temp
2017-Oct-22 23:31N 40°45' W 074°01'0 0.0
2017-Oct-22 23:29N 40°45' W 074°01'3 5.3
2017-Oct-22 23:00N 40°42' W 073°60'3 5.6
2017-Oct-22 22:30N 40°41' W 074°03'510.2
2017-Oct-22 22:00N 40°46' W 074°01'1 2.0
2017-Oct-22 21:23N 40°45' W 074°01'0 0.0
2017-Oct-22 20:59N 40°45' W 074°01'0 0.0
2017-Oct-22 20:29N 40°45' W 074°01'611.4
2017-Oct-22 19:59N 40°50' W 073°57'5 4.7
2017-Oct-22 18:54N 40°45' W 073°58'4 9.0
2017-Oct-22 18:30N 40°42' W 074°00'3 5.1
2017-Oct-22 18:00N 40°44' W 074°01'1 0.9
2017-Oct-22 17:27N 40°45' W 074°01'0 0.0
2017-Oct-22 16:54N 40°45' W 074°01'2 6.2
2017-Oct-22 16:30N 40°47' W 073°60'5 2.6
2017-Oct-22 14:38N 40°52' W 073°57'215.7
2017-Oct-22 14:30N 40°50' W 073°58'5 8.8
2017-Oct-22 13:54N 40°45' W 074°01'0 0.0
2017-Oct-22 01:33N 40°45' W 074°01'0 0.0
2017-Oct-22 01:29N 40°45' W 074°01'3 6.0
2017-Oct-22 01:00N 40°42' W 074°00'2 3.4
2017-Oct-22 00:30N 40°41' W 074°02'4 6.9
2017-Oct-21 23:57N 40°45' W 074°01'0 0.0
2017-Oct-21 23:29N 40°45' W 074°01'3 5.4
2017-Oct-21 23:00N 40°42' W 073°60'0 0.1
2017-Oct-21 22:30N 40°42' W 073°60'2 3.5
2017-Oct-21 22:00N 40°44' W 074°01'1 2.8
2017-Oct-21 21:30N 40°45' W 074°01'0 0.0
2017-Oct-21 21:00N 40°45' W 074°01'0 0.4
2017-Oct-21 20:24N 40°45' W 074°01'410.2
2017-Oct-21 19:59N 40°49' W 073°58'3 3.0
2017-Oct-21 18:51N 40°45' W 073°58'410.1
2017-Oct-21 18:30N 40°42' W 073°60'2 4.0
2017-Oct-21 17:56N 40°44' W 074°01'1 0.9
2017-Oct-21 17:19N 40°45' W 074°01'0 0.0
2017-Oct-21 16:55N 40°45' W 074°01'3 7.0
2017-Oct-21 16:29N 40°48' W 073°59'4 2.4
2017-Oct-21 14:45N 40°52' W 073°57'7 9.4
2017-Oct-21 13:59N 40°45' W 074°01'0 0.0
2017-Oct-21 13:23N 40°45' W 074°01'0 0.0
2017-Oct-20 23:17N 40°45' W 074°01'0 0.6
2017-Oct-20 22:59N 40°45' W 074°01'3 5.6
2017-Oct-20 22:30N 40°42' W 073°60'2 3.0
2017-Oct-20 22:00N 40°42' W 074°02'3 2.2
2017-Oct-20 20:47N 40°45' W 074°01'0 0.0
2017-Oct-20 20:31N 40°45' W 074°01'2 1.2
2017-Oct-20 18:44N 40°44' W 073°58'2 9.5
2017-Oct-20 18:30N 40°42' W 073°60'2 3.7
2017-Oct-20 18:00N 40°44' W 074°01'1 1.8
2017-Oct-20 17:25N 40°45' W 074°01'0 0.0
2017-Oct-20 16:55N 40°45' W 074°01'1 2.4
2017-Oct-20 16:29N 40°46' W 074°00'2 1.5
2017-Oct-20 15:02N 40°45' W 073°57'010.9
2017-Oct-20 15:00N 40°45' W 073°58'2 2.1
2017-Oct-20 14:00N 40°45' W 074°01'0 0.0
2017-Oct-20 13:30N 40°45' W 074°01'0 0.0
2017-Oct-19 23:18N 40°45' W 074°01'1 1.6
2017-Oct-19 22:59N 40°45' W 074°01'3 5.8
2017-Oct-19 22:30N 40°43' W 073°59'3 5.6
2017-Oct-19 22:00N 40°41' W 074°02'4 7.2
2017-Oct-19 21:29N 40°45' W 074°01'0 0.0
2017-Oct-19 20:56N 40°45' W 074°01'0 0.0
2017-Oct-19 20:30N 40°45' W 074°01'610.6
2017-Oct-19 19:58N 40°50' W 073°57'5 4.7
2017-Oct-19 18:56N 40°45' W 073°57'4 9.4
2017-Oct-19 18:30N 40°42' W 074°00'2 4.1
2017-Oct-19 18:00N 40°44' W 074°01'1 1.2
2017-Oct-19 17:03N 40°45' W 074°01'0 0.0
2017-Oct-19 16:59N 40°45' W 074°01'3 5.8
2017-Oct-19 16:30N 40°42' W 073°60'2 4.4
2017-Oct-19 16:00N 40°44' W 074°01'1 0.5
2017-Oct-19 14:19N 40°45' W 074°01'0 0.9
2017-Oct-19 13:59N 40°45' W 074°01'2 5.0
2017-Oct-19 13:30N 40°43' W 074°02'0 0.1
2017-Oct-19 13:00N 40°43' W 074°03'3 4.6
2017-Oct-19 12:26N 40°45' W 074°01'0 0.1
2017-Oct-19 12:00N 40°45' W 074°01'0 0.0
2017-Oct-18 23:15N 40°45' W 074°01'1 2.3
2017-Oct-18 22:57N 40°45' W 074°01'3 5.9
2017-Oct-18 22:30N 40°43' W 073°59'3 5.7
2017-Oct-18 22:00N 40°42' W 074°02'3 7.0
2017-Oct-18 21:30N 40°45' W 074°01'0 0.0
2017-Oct-18 21:00N 40°45' W 074°01'0 0.0
2017-Oct-18 20:30N 40°45' W 074°01'5 9.1
2017-Oct-18 20:00N 40°49' W 073°58'4 3.7
2017-Oct-18 18:49N 40°45' W 073°58'3 9.7
2017-Oct-18 18:29N 40°42' W 074°00'2 4.3
2017-Oct-18 18:00N 40°44' W 074°01'1 1.8
2017-Oct-18 17:28N 40°45' W 074°01'0 0.0
2017-Oct-17 23:47N 40°45' W 074°01'0 0.9
2017-Oct-17 23:29N 40°45' W 074°01'3 6.6
2017-Oct-17 23:00N 40°42' W 074°02'2 3.3
2017-Oct-17 22:30N 40°43' W 074°01'2 3.2
2017-Oct-17 22:00N 40°45' W 074°01'0 0.0
2017-Oct-17 21:30N 40°45' W 074°01'0 0.0
2017-Oct-17 21:00N 40°45' W 074°01'0 0.0
2017-Oct-17 20:30N 40°45' W 074°01'5 9.5
2017-Oct-17 19:58N 40°49' W 073°58'4 3.6
2017-Oct-17 18:49N 40°45' W 073°57'410.6
2017-Oct-17 18:29N 40°42' W 073°60'1 3.0
2017-Oct-17 18:00N 40°43' W 074°01'2 3.5
2017-Oct-17 17:30N 40°45' W 074°01'0 0.0
2017-Oct-17 17:00N 40°45' W 074°01'2 3.4
2017-Oct-17 16:30N 40°43' W 074°01'1 2.9
2017-Oct-17 15:59N 40°42' W 073°60'3 5.1
2017-Oct-17 15:28N 40°45' W 074°01'0 0.0
2017-Oct-17 14:58N 40°45' W 074°01'0 0.0
2017-Oct-16 23:43N 40°45' W 074°01'0 1.7
2017-Oct-16 23:30N 40°45' W 074°01'3 5.0
2017-Oct-16 22:59N 40°42' W 073°60'2 3.1
2017-Oct-16 22:30N 40°43' W 074°01'2 3.1
2017-Oct-16 21:55N 40°45' W 074°01'0 0.0
2017-Oct-16 21:28N 40°45' W 074°01'0 0.0
2017-Oct-16 20:58N 40°45' W 074°01'0 0.0
2017-Oct-16 20:27N 40°45' W 074°01'5 9.7
2017-Oct-16 19:58N 40°49' W 073°58'4 3.4
2017-Oct-16 18:45N 40°45' W 073°58'311.8
2017-Oct-16 18:30N 40°42' W 073°60'2 3.9
2017-Oct-16 18:00N 40°44' W 074°01'1 1.9
2017-Oct-16 17:29N 40°45' W 074°01'0 0.0
2017-Oct-16 16:59N 40°45' W 074°01'0 0.8
2017-Oct-16 16:29N 40°45' W 074°01'613.5
2017-Oct-16 16:00N 40°51' W 073°57'6 6.3
2017-Oct-16 15:01N 40°45' W 073°58'011.2
2017-Oct-16 15:00N 40°45' W 073°58'5 9.6
2017-Oct-16 14:31N 40°41' W 074°02'4 0.3
2017-Oct-15 23:19N 40°45' W 074°01'2 5.4
2017-Oct-15 23:00N 40°43' W 074°01'2 3.2
2017-Oct-15 22:30N 40°42' W 074°00'1 2.9
2017-Oct-15 22:00N 40°43' W 074°02'4 7.9
2017-Oct-15 21:30N 40°47' W 073°60'2 3.1
2017-Oct-15 20:58N 40°45' W 074°01'1 2.2
2017-Oct-15 20:30N 40°44' W 074°01'6 2.7
2017-Oct-15 18:15N 40°39' W 074°05'312.3
2017-Oct-15 18:00N 40°41' W 074°03'4 8.6
2017-Oct-15 17:30N 40°45' W 074°01'0 0.0
2017-Oct-15 17:00N 40°45' W 074°01'2 3.9
2017-Oct-15 16:29N 40°47' W 073°60'6 3.3
2017-Oct-15 14:43N 40°52' W 073°56'810.8
2017-Oct-15 14:00N 40°45' W 074°01'0 0.0
2017-Oct-15 13:27N 40°45' W 074°01'0 0.0
2017-Oct-14 21:47N 40°45' W 074°01'2 6.1
2017-Oct-14 21:30N 40°47' W 074°00'611.9
2017-Oct-14 20:59N 40°52' W 073°56'0 0.4
2017-Oct-14 20:30N 40°52' W 073°56'0 0.3
2017-Oct-14 19:58N 40°52' W 073°56'1 1.3
2017-Oct-14 19:30N 40°52' W 073°56'0 0.1
2017-Oct-14 18:59N 40°52' W 073°56'0 0.7
2017-Oct-14 18:25N 40°52' W 073°56'1 3.3
2017-Oct-14 18:00N 40°51' W 073°57'612.5
2017-Oct-14 17:30N 40°45' W 074°01'0 0.8
2017-Oct-14 16:58N 40°45' W 074°01'1 1.3
2017-Oct-14 16:30N 40°46' W 074°01'7 3.8
2017-Oct-14 14:45N 40°52' W 073°57'312.1
2017-Oct-14 14:30N 40°49' W 073°58'4 7.1
2017-Oct-14 13:55N 40°45' W 074°01'0 0.0
2017-Oct-14 13:28N 40°45' W 074°01'0 0.0
2017-Oct-14 00:50N 40°45' W 074°01'0 0.0
2017-Oct-14 00:30N 40°45' W 074°01'0 0.4
2017-Oct-14 00:00N 40°45' W 074°01'4 7.7
2017-Oct-13 23:30N 40°41' W 074°03'1 2.7
2017-Oct-13 22:59N 40°42' W 074°01'3 6.2
2017-Oct-13 22:28N 40°45' W 074°01'0 0.0
2017-Oct-13 21:58N 40°45' W 074°01'0 0.0
2017-Oct-13 21:25N 40°45' W 074°01'0 0.0
2017-Oct-13 20:52N 40°45' W 074°01'0 0.1
2017-Oct-13 20:30N 40°45' W 074°01'611.3
2017-Oct-13 20:00N 40°50' W 073°57'5 4.3
2017-Oct-13 18:47N 40°45' W 073°58'311.0
2017-Oct-13 18:30N 40°42' W 074°00'3 5.1
2017-Oct-13 18:00N 40°45' W 074°01'0 0.5
2017-Oct-13 17:20N 40°45' W 074°01'0 0.0
2017-Oct-13 16:59N 40°45' W 074°01'1 1.8
2017-Oct-13 16:30N 40°46' W 074°01'611.7
2017-Oct-13 16:00N 40°51' W 073°57'6 5.8
2017-Oct-13 15:00N 40°45' W 073°58'5 9.8
2017-Oct-13 14:30N 40°41' W 074°02'4 7.5
2017-Oct-13 13:59N 40°45' W 074°01'  

Dump ship's entire track history